Time;durP1;ratioP1;P1;durP2;ratioP2;P2;SDS_P1;SDS_P2;PMS_P1;PMS_P2;Temp;Humidity;BMP_temperature;BMP_pressure;BME280_temperature;BME280_humidity;BME280_pressure;Samples;Min_cycle;Max_cycle;Signal;HPM_P1;HPM_P2
2021/08/08 00:01:20;;;;;;;7.82;2.97;;;14.80;99.90;;;;;;4995075;28;20058;-73
2021/08/08 00:03:46;;;;;;;5.05;3.25;;;14.60;99.90;;;;;;4995177;28;20028;-74
2021/08/08 00:06:11;;;;;;;10.95;3.28;;;14.50;99.90;;;;;;4994715;28;20059;-74
2021/08/08 00:08:37;;;;;;;5.18;3.28;;;14.50;99.90;;;;;;4995407;28;20065;-74
2021/08/08 00:11:03;;;;;;;9.30;3.35;;;14.60;99.90;;;;;;4995171;28;20489;-74
2021/08/08 00:13:29;;;;;;;6.03;3.08;;;14.50;99.90;;;;;;5005886;28;20033;-73
2021/08/08 00:15:55;;;;;;;4.03;3.22;;;14.40;99.90;;;;;;4996874;28;20484;-74
2021/08/08 00:18:20;;;;;;;7.60;3.08;;;14.30;99.90;;;;;;4994965;28;20050;-74
2021/08/08 00:20:47;;;;;;;4.72;2.80;;;14.30;99.90;;;;;;4993564;28;20109;-73
2021/08/08 00:23:13;;;;;;;6.72;3.60;;;14.30;99.90;;;;;;4994828;28;20065;-74
2021/08/08 00:25:38;;;;;;;4.00;2.83;;;14.30;99.90;;;;;;4994508;28;20551;-74
2021/08/08 00:28:05;;;;;;;4.75;2.47;;;14.40;99.90;;;;;;4994596;28;20049;-74
2021/08/08 00:30:31;;;;;;;8.90;3.05;;;14.30;99.90;;;;;;4994466;28;20397;-74
2021/08/08 00:32:57;;;;;;;7.05;3.13;;;14.30;99.90;;;;;;4993431;28;20461;-74
2021/08/08 00:35:22;;;;;;;4.30;2.60;;;14.20;99.90;;;;;;4994242;28;20109;-73
2021/08/08 00:37:48;;;;;;;6.63;3.20;;;14.20;99.90;;;;;;4992708;28;20418;-74
2021/08/08 00:40:15;;;;;;;4.22;3.00;;;14.30;99.90;;;;;;4994422;28;20040;-74
2021/08/08 00:42:46;;;;;;;5.30;2.88;;;14.30;99.90;;;;;;4994447;28;20033;-74
2021/08/08 00:45:17;;;;;;;5.10;3.00;;;14.30;99.90;;;;;;4994103;28;20369;-74
2021/08/08 00:47:43;;;;;;;8.20;3.40;;;14.30;99.90;;;;;;4993226;28;20029;-74
2021/08/08 00:50:10;;;;;;;5.95;3.47;;;14.20;99.90;;;;;;4994337;28;20545;-74
2021/08/08 00:52:35;;;;;;;5.88;3.28;;;14.30;99.90;;;;;;4993207;28;20022;-74
2021/08/08 00:55:02;;;;;;;5.95;3.20;;;14.20;99.90;;;;;;4993953;28;20025;-74
2021/08/08 00:57:27;;;;;;;8.98;3.50;;;14.20;99.90;;;;;;4993004;28;20081;-73
2021/08/08 00:59:53;;;;;;;10.32;3.72;;;14.20;99.90;;;;;;4992935;28;20018;-74
2021/08/08 01:02:22;;;;;;;4.47;2.90;;;14.20;99.90;;;;;;4994445;28;20031;-74
2021/08/08 01:04:55;;;;;;;6.22;3.67;;;14.20;99.90;;;;;;4993656;28;20034;-74
2021/08/08 01:07:25;;;;;;;5.82;3.40;;;14.20;99.90;;;;;;4994235;28;20026;-73
2021/08/08 01:09:54;;;;;;;4.20;3.30;;;14.20;99.90;;;;;;4994143;28;20026;-74
2021/08/08 01:12:23;;;;;;;5.50;3.03;;;14.10;99.90;;;;;;4993719;28;20027;-73
2021/08/08 01:14:50;;;;;;;9.45;3.30;;;14.10;99.90;;;;;;4993397;28;20057;-74
2021/08/08 01:17:16;;;;;;;4.95;2.90;;;14.10;99.90;;;;;;4993910;28;20424;-73
2021/08/08 01:19:52;;;;;;;4.40;2.90;;;14.10;99.90;;;;;;4992781;28;20022;-74
2021/08/08 01:22:19;;;;;;;8.05;3.13;;;14.20;99.90;;;;;;4993613;28;20500;-74
2021/08/08 01:24:45;;;;;;;6.72;3.70;;;14.00;99.90;;;;;;4993337;28;20501;-74
2021/08/08 01:27:12;;;;;;;7.22;3.28;;;14.00;99.90;;;;;;4993541;28;20073;-74
2021/08/08 01:29:38;;;;;;;8.98;3.22;;;14.00;99.90;;;;;;4993618;28;20077;-74
2021/08/08 01:32:03;;;;;;;7.43;3.08;;;14.00;99.90;;;;;;4992175;28;20026;-73
2021/08/08 01:34:29;;;;;;;4.72;2.88;;;14.00;99.90;;;;;;4993085;28;20370;-73
2021/08/08 01:36:55;;;;;;;7.45;3.03;;;14.00;99.90;;;;;;4992109;28;20121;-74
2021/08/08 01:39:22;;;;;;;7.25;2.90;;;14.00;99.90;;;;;;4993391;28;20027;-74
2021/08/08 01:41:57;;;;;;;7.43;2.70;;;14.00;99.90;;;;;;4993154;28;20504;-73
2021/08/08 01:44:30;;;;;;;4.07;2.33;;;14.10;99.90;;;;;;4991599;28;20452;-73
2021/08/08 01:46:57;;;;;;;5.15;2.60;;;14.00;99.90;;;;;;4993243;28;20106;-73
2021/08/08 01:49:27;;;;;;;5.25;2.95;;;14.10;99.90;;;;;;4992305;28;20030;-73
2021/08/08 01:51:54;;;;;;;7.75;2.72;;;14.10;99.90;;;;;;4993231;28;20023;-73
2021/08/08 01:54:21;;;;;;;7.10;2.50;;;14.10;99.90;;;;;;4992954;28;20105;-74
2021/08/08 01:56:47;;;;;;;9.27;3.08;;;14.10;99.90;;;;;;4993186;28;20026;-74
2021/08/08 01:59:13;;;;;;;6.18;3.00;;;14.10;99.90;;;;;;4993190;28;20026;-74
2021/08/08 02:01:39;;;;;;;4.88;2.80;;;14.10;99.90;;;;;;4993019;28;20030;-74
2021/08/08 02:04:20;;;;;;;6.72;2.80;;;14.00;99.90;;;;;;4993169;28;20034;-73
2021/08/08 02:06:46;;;;;;;5.43;2.97;;;14.00;99.90;;;;;;4992991;28;20026;-74
2021/08/08 02:09:12;;;;;;;6.32;2.65;;;13.90;99.90;;;;;;4992747;28;20477;-73
2021/08/08 02:11:37;;;;;;;9.60;3.08;;;14.00;99.90;;;;;;4991473;28;20130;-74
2021/08/08 02:14:04;;;;;;;6.93;3.17;;;13.90;99.90;;;;;;4992676;28;20034;-74
2021/08/08 02:16:31;;;;;;;7.03;3.00;;;14.10;99.90;;;;;;4992725;28;20022;-74
2021/08/08 02:18:57;;;;;;;7.25;3.42;;;13.90;99.90;;;;;;4993326;28;20105;-74
2021/08/08 02:21:22;;;;;;;6.53;3.50;;;13.90;99.90;;;;;;4993191;28;20114;-74
2021/08/08 02:23:48;;;;;;;5.15;3.47;;;13.80;99.90;;;;;;4991289;28;20022;-74
2021/08/08 02:26:13;;;;;;;4.65;2.95;;;13.90;99.90;;;;;;4992406;28;20030;-73
2021/08/08 02:28:39;;;;;;;5.45;2.88;;;13.80;99.90;;;;;;4991529;28;20453;-74
2021/08/08 02:31:04;;;;;;;6.28;2.90;;;13.80;99.90;;;;;;4992654;28;20114;-74
2021/08/08 02:33:30;;;;;;;3.78;2.80;;;13.90;99.90;;;;;;4992469;28;20031;-74
2021/08/08 02:35:56;;;;;;;4.70;2.63;;;13.80;99.90;;;;;;4992239;28;20073;-74
2021/08/08 02:38:21;;;;;;;6.30;2.63;;;13.80;99.90;;;;;;4992225;28;20038;-73
2021/08/08 02:40:47;;;;;;;5.00;3.08;;;13.80;99.90;;;;;;4992811;28;20175;-74
2021/08/08 02:43:12;;;;;;;4.32;2.55;;;13.80;99.90;;;;;;4991302;28;20054;-73
2021/08/08 02:45:38;;;;;;;5.28;2.67;;;13.80;99.90;;;;;;4992325;28;20033;-74
2021/08/08 02:48:04;;;;;;;7.97;2.72;;;13.90;99.90;;;;;;4992996;28;20105;-74
2021/08/08 02:50:29;;;;;;;4.45;2.30;;;13.80;99.90;;;;;;4992373;28;20031;-73
2021/08/08 02:52:55;;;;;;;4.55;2.90;;;13.70;99.90;;;;;;4992423;28;20535;-73
2021/08/08 02:55:21;;;;;;;5.20;2.72;;;13.80;99.90;;;;;;4992352;28;20030;-73
2021/08/08 02:57:46;;;;;;;5.60;2.25;;;13.70;99.90;;;;;;4992328;28;20481;-73
2021/08/08 03:00:12;;;;;;;8.82;2.15;;;13.70;99.90;;;;;;4991926;28;20053;-73
2021/08/08 03:02:38;;;;;;;7.93;2.35;;;13.80;99.90;;;;;;4996178;28;20031;-73
2021/08/08 03:05:04;;;;;;;4.70;2.47;;;13.70;99.90;;;;;;4995958;28;20096;-74
2021/08/08 03:07:29;;;;;;;6.45;2.50;;;13.70;99.90;;;;;;4994720;28;20026;-74
2021/08/08 03:09:55;;;;;;;3.28;2.22;;;13.80;99.90;;;;;;4996172;28;20129;-74
2021/08/08 03:12:20;;;;;;;6.95;2.60;;;13.80;99.90;;;;;;4995974;28;20038;-74
2021/08/08 03:14:46;;;;;;;4.43;2.55;;;13.70;99.90;;;;;;4994473;28;20025;-73
2021/08/08 03:17:11;;;;;;;5.43;2.58;;;13.70;99.90;;;;;;4996038;28;20023;-74
2021/08/08 03:19:37;;;;;;;4.70;2.60;;;13.70;99.90;;;;;;4996330;28;20062;-73
2021/08/08 03:22:02;;;;;;;4.90;2.60;;;13.60;99.90;;;;;;4995604;28;20053;-74
2021/08/08 03:24:28;;;;;;;5.25;2.60;;;13.60;99.90;;;;;;4995579;28;20036;-73
2021/08/08 03:26:53;;;;;;;3.95;2.40;;;13.60;99.90;;;;;;4994493;28;20113;-74
2021/08/08 03:29:19;;;;;;;5.40;2.20;;;13.60;99.90;;;;;;4994557;28;20019;-74
2021/08/08 03:31:45;;;;;;;7.15;2.35;;;13.60;99.90;;;;;;4995495;28;20026;-74
2021/08/08 03:34:10;;;;;;;4.28;2.42;;;13.60;99.90;;;;;;4995737;28;20026;-73
2021/08/08 03:36:36;;;;;;;4.63;2.25;;;13.60;99.90;;;;;;4995375;28;20485;-74
2021/08/08 03:39:01;;;;;;;4.50;2.60;;;13.60;99.90;;;;;;4995676;28;20065;-74
2021/08/08 03:41:27;;;;;;;4.93;2.25;;;13.70;99.90;;;;;;4995265;28;20038;-73
2021/08/08 03:43:52;;;;;;;4.63;2.40;;;13.70;99.90;;;;;;4995640;28;20054;-74
2021/08/08 03:46:18;;;;;;;5.78;2.53;;;13.80;99.90;;;;;;4995296;28;20086;-73
2021/08/08 03:48:44;;;;;;;5.30;2.60;;;13.80;99.90;;;;;;4995538;28;20026;-74
2021/08/08 03:51:09;;;;;;;6.15;2.55;;;13.80;99.90;;;;;;4994996;28;20030;-74
2021/08/08 03:53:35;;;;;;;4.53;2.50;;;13.80;99.90;;;;;;4995527;28;20030;-74
2021/08/08 03:56:00;;;;;;;3.90;2.35;;;13.80;99.90;;;;;;4993662;28;20105;-74
2021/08/08 03:58:30;;;;;;;4.78;2.17;;;13.80;99.90;;;;;;4994188;28;20113;-74
2021/08/08 04:00:58;;;;;;;3.58;2.63;;;13.90;99.90;;;;;;4993979;28;20112;-74
2021/08/08 04:03:24;;;;;;;4.65;2.42;;;13.90;99.90;;;;;;4995151;28;20023;-73
2021/08/08 04:05:49;;;;;;;80.85;8.43;;;13.90;99.90;;;;;;4994794;28;20380;-73
2021/08/08 04:08:15;;;;;;;389.17;33.45;;;13.90;99.90;;;;;;4995085;28;20540;-74
2021/08/08 04:10:40;;;;;;;6.65;2.22;;;13.90;99.90;;;;;;4994808;28;20044;-73
2021/08/08 04:13:06;;;;;;;13.88;3.30;;;13.90;99.90;;;;;;4993880;28;20035;-74
2021/08/08 04:15:31;;;;;;;134.70;11.75;;;13.90;99.90;;;;;;4994740;28;20030;-74
2021/08/08 04:17:57;;;;;;;121.55;13.18;;;14.00;99.90;;;;;;4994846;28;20088;-74
2021/08/08 04:20:22;;;;;;;4.03;2.60;;;14.00;99.90;;;;;;4993497;28;20392;-73
2021/08/08 04:22:48;;;;;;;3.10;2.10;;;14.10;99.90;;;;;;4994834;28;20030;-73
2021/08/08 04:25:13;;;;;;;5.07;2.30;;;14.10;99.90;;;;;;4994604;28;20069;-74
2021/08/08 04:27:39;;;;;;;5.30;2.10;;;14.10;99.90;;;;;;4994826;28;20029;-74
2021/08/08 04:30:05;;;;;;;3.28;1.95;;;14.10;99.90;;;;;;4993385;28;20114;-73
2021/08/08 04:32:30;;;;;;;6.28;2.15;;;14.00;99.90;;;;;;4994780;28;20019;-74
2021/08/08 04:34:56;;;;;;;3.53;2.25;;;14.00;99.90;;;;;;4993339;28;20029;-73
2021/08/08 04:37:21;;;;;;;3.95;2.40;;;13.90;99.90;;;;;;4994727;28;20033;-74
2021/08/08 04:39:49;;;;;;;5.32;2.10;;;14.00;99.90;;;;;;4994542;28;20026;-74
2021/08/08 04:42:16;;;;;;;4.88;2.10;;;14.00;99.90;;;;;;4994900;28;20485;-74
2021/08/08 04:44:41;;;;;;;3.42;2.25;;;14.00;99.90;;;;;;4994133;28;20034;-74
2021/08/08 04:47:07;;;;;;;6.13;2.38;;;14.10;99.90;;;;;;4994370;28;20029;-74
2021/08/08 04:49:32;;;;;;;6.00;2.42;;;14.10;99.90;;;;;;4994118;28;20022;-74
2021/08/08 04:51:59;;;;;;;5.72;2.30;;;14.10;99.90;;;;;;4994024;28;20033;-73
2021/08/08 04:54:25;;;;;;;3.33;2.25;;;14.10;99.90;;;;;;4993921;28;20587;-73
2021/08/08 04:56:51;;;;;;;4.47;2.00;;;14.10;99.90;;;;;;4993114;28;20432;-73
2021/08/08 04:59:16;;;;;;;4.28;2.10;;;14.20;99.90;;;;;;4992963;28;20027;-73
2021/08/08 05:01:42;;;;;;;4.40;2.13;;;14.20;99.90;;;;;;4993936;28;20058;-73
2021/08/08 05:04:07;;;;;;;3.70;2.08;;;14.10;99.90;;;;;;4993627;28;20370;-73
2021/08/08 05:06:34;;;;;;;3.08;2.28;;;14.20;99.90;;;;;;4993560;28;20026;-73
2021/08/08 05:08:59;;;;;;;4.97;2.10;;;14.20;99.90;;;;;;4993774;28;20033;-73
2021/08/08 05:11:25;;;;;;;4.47;2.42;;;14.30;99.90;;;;;;4993677;28;20030;-73
2021/08/08 05:13:50;;;;;;;5.18;2.22;;;14.20;99.90;;;;;;4993820;28;20030;-73
2021/08/08 05:16:16;;;;;;;4.65;2.20;;;14.30;99.90;;;;;;4995544;28;20113;-73
2021/08/08 05:18:41;;;;;;;6.32;2.13;;;14.30;99.90;;;;;;4993821;28;20620;-73
2021/08/08 05:21:07;;;;;;;5.85;2.30;;;14.30;99.90;;;;;;4993419;28;20038;-73
2021/08/08 05:23:34;;;;;;;4.63;2.08;;;14.30;99.90;;;;;;4992049;28;20037;-73
2021/08/08 05:26:02;;;;;;;6.10;2.22;;;14.40;99.90;;;;;;4993190;28;20589;-73
2021/08/08 05:28:28;;;;;;;3.58;2.35;;;14.40;99.90;;;;;;4991907;28;20527;-73
2021/08/08 05:30:53;;;;;;;3.67;2.20;;;14.30;99.90;;;;;;4993179;28;20057;-73
2021/08/08 05:33:19;;;;;;;4.13;2.30;;;14.40;99.90;;;;;;4992997;28;20057;-73
2021/08/08 05:35:44;;;;;;;3.45;2.10;;;14.40;99.90;;;;;;4991498;28;20042;-73
2021/08/08 05:38:10;;;;;;;3.20;2.28;;;14.40;99.90;;;;;;4992999;28;20034;-73
2021/08/08 05:40:36;;;;;;;5.13;2.53;;;14.50;99.90;;;;;;4992914;28;20026;-73
2021/08/08 05:43:01;;;;;;;5.18;2.30;;;14.60;99.90;;;;;;4991612;28;20057;-73
2021/08/08 05:45:27;;;;;;;5.05;2.30;;;14.50;99.90;;;;;;4992646;28;20058;-73
2021/08/08 05:47:53;;;;;;;5.10;2.75;;;14.60;99.90;;;;;;4992765;28;20034;-73
2021/08/08 05:50:18;;;;;;;3.88;2.30;;;14.60;99.90;;;;;;4998774;28;20113;-73
2021/08/08 05:52:48;;;;;;;113.82;15.35;;;14.60;99.90;;;;;;4999642;28;20126;-73
2021/08/08 05:55:14;;;;;;;5.22;2.42;;;14.80;99.90;;;;;;4979684;28;20030;-73
2021/08/08 05:57:40;;;;;;;29.98;5.10;;;14.90;99.90;;;;;;4992561;28;20037;-73
2021/08/08 06:00:06;;;;;;;7.20;2.95;;;14.90;99.90;;;;;;4992711;28;20022;-73
2021/08/08 06:02:32;;;;;;;2.95;2.10;;;14.90;99.90;;;;;;4992379;28;20022;-73
2021/08/08 06:04:57;;;;;;;3.85;2.55;;;14.70;99.90;;;;;;4979464;28;20034;-73
2021/08/08 06:07:23;;;;;;;4.95;2.25;;;14.80;99.90;;;;;;4992497;28;20564;-73
2021/08/08 06:09:48;;;;;;;4.80;1.92;;;15.10;99.90;;;;;;4992489;28;20026;-73
2021/08/08 06:12:14;;;;;;;4.78;1.90;;;15.20;99.90;;;;;;4992410;28;20420;-73
2021/08/08 06:14:39;;;;;;;4.60;1.98;;;15.30;99.90;;;;;;4992084;28;20026;-73
2021/08/08 06:17:05;;;;;;;6.55;1.90;;;15.30;99.90;;;;;;4992338;28;20026;-73
2021/08/08 06:19:30;;;;;;;6.05;1.58;;;15.20;99.90;;;;;;4992492;28;20436;-73
2021/08/08 06:21:56;;;;;;;2.53;1.77;;;15.10;99.90;;;;;;4992253;28;20034;-73
2021/08/08 06:24:21;;;;;;;4.65;2.10;;;15.20;99.90;;;;;;4992049;28;20041;-73
2021/08/08 06:26:47;;;;;;;6.95;1.98;;;15.20;99.90;;;;;;4992348;28;20033;-73
2021/08/08 06:29:12;;;;;;;4.43;1.80;;;15.30;99.90;;;;;;4992625;28;20072;-73
2021/08/08 06:31:38;;;;;;;6.82;2.60;;;15.30;99.90;;;;;;4992139;28;20026;-73
2021/08/08 06:34:03;;;;;;;2.67;1.70;;;15.40;99.90;;;;;;4992328;28;20026;-73
2021/08/08 06:36:29;;;;;;;3.42;2.20;;;15.50;99.90;;;;;;4994972;28;20065;-73
2021/08/08 06:38:57;;;;;;;4.93;2.03;;;15.70;99.90;;;;;;4996647;28;20448;-73
2021/08/08 06:41:23;;;;;;;4.72;1.75;;;15.70;99.90;;;;;;4996201;28;20077;-73
2021/08/08 06:43:48;;;;;;;352.15;49.50;;;15.80;99.90;;;;;;4994917;28;20030;-73
2021/08/08 06:46:14;;;;;;;1999.90;999.90;;;16.00;99.90;;;;;;4995986;28;20018;-73
2021/08/08 06:48:39;;;;;;;1999.90;999.90;;;16.00;99.90;;;;;;4996068;28;20489;-73
2021/08/08 06:51:05;;;;;;;1999.90;999.90;;;15.80;99.90;;;;;;4996017;28;20038;-73
2021/08/08 06:53:30;;;;;;;1999.90;999.90;;;15.80;99.90;;;;;;4996027;28;20038;-73
2021/08/08 06:55:57;;;;;;;24.25;23.20;;;15.70;99.90;;;;;;4995977;28;20425;-73
2021/08/08 06:58:23;;;;;;;3.35;1.70;;;15.70;99.90;;;;;;4994633;28;20030;-73
2021/08/08 07:00:48;;;;;;;4.70;2.17;;;15.80;99.90;;;;;;4995714;28;20080;-73
2021/08/08 07:03:14;;;;;;;4.32;1.88;;;16.00;99.90;;;;;;4995851;28;20516;-73
2021/08/08 07:05:39;;;;;;;3.30;1.85;;;15.90;99.90;;;;;;4995610;28;20030;-73
2021/08/08 07:08:07;;;;;;;2.85;1.90;;;16.00;99.90;;;;;;5013803;28;20029;-73
2021/08/08 07:10:32;;;;;;;4.93;1.90;;;16.30;99.90;;;;;;5013990;28;20025;-73
2021/08/08 07:12:58;;;;;;;5.45;2.00;;;16.40;99.90;;;;;;5015206;28;20049;-73
2021/08/08 07:15:24;;;;;;;5.53;2.05;;;16.60;99.90;;;;;;5001814;28;20034;-73
2021/08/08 07:17:49;;;;;;;5.47;2.00;;;16.70;99.90;;;;;;4995484;28;20416;-73
2021/08/08 07:20:15;;;;;;;2.50;1.95;;;16.80;99.90;;;;;;4995403;28;20034;-73
2021/08/08 07:22:40;;;;;;;2.17;1.50;;;16.70;99.90;;;;;;4995428;28;20030;-73
2021/08/08 07:25:06;;;;;;;3.47;1.58;;;16.60;99.90;;;;;;4995367;28;20535;-73
2021/08/08 07:27:32;;;;;;;3.40;1.67;;;16.80;99.90;;;;;;4994101;28;20109;-73
2021/08/08 07:29:57;;;;;;;3.92;1.75;;;16.80;99.90;;;;;;4995318;28;20065;-73
2021/08/08 07:32:23;;;;;;;5.63;1.55;;;17.10;99.90;;;;;;4995267;28;20389;-73
2021/08/08 07:34:48;;;;;;;4.15;1.60;;;16.70;99.90;;;;;;4994983;28;20557;-73
2021/08/08 07:37:14;;;;;;;3.85;1.60;;;16.80;99.90;;;;;;4995182;28;20034;-73
2021/08/08 07:39:40;;;;;;;3.90;1.55;;;16.80;99.90;;;;;;4995187;28;20489;-73
2021/08/08 07:42:05;;;;;;;4.10;1.80;;;16.70;99.90;;;;;;4995010;28;20041;-73
2021/08/08 07:44:31;;;;;;;4.93;1.73;;;16.70;99.90;;;;;;4994764;28;20037;-73
2021/08/08 07:46:56;;;;;;;3.97;1.50;;;16.90;99.90;;;;;;4994928;28;20030;-73
2021/08/08 07:49:22;;;;;;;4.75;1.52;;;17.00;99.90;;;;;;4994949;28;20019;-73
2021/08/08 07:51:47;;;;;;;39.60;37.85;;;17.30;99.90;;;;;;4994864;28;20041;-73
2021/08/08 07:54:13;;;;;;;5.78;2.40;;;17.10;99.90;;;;;;4994980;28;20045;-73
2021/08/08 07:56:39;;;;;;;5.85;1.88;;;17.20;99.90;;;;;;4994657;28;20051;-73
2021/08/08 07:59:05;;;;;;;3.88;1.70;;;17.10;99.90;;;;;;4993531;28;20041;-73
2021/08/08 08:01:32;;;;;;;6.40;1.90;;;17.20;99.90;;;;;;4994691;28;20037;-73
2021/08/08 08:03:57;;;;;;;3.15;1.80;;;17.40;99.90;;;;;;4994906;28;20023;-73
2021/08/08 08:06:23;;;;;;;2.92;2.00;;;17.60;99.90;;;;;;4994590;28;20022;-73
2021/08/08 08:08:48;;;;;;;3.83;1.83;;;17.50;99.90;;;;;;4994752;28;20034;-73
2021/08/08 08:11:14;;;;;;;6.30;1.85;;;17.30;99.90;;;;;;4994562;28;20548;-73
2021/08/08 08:13:40;;;;;;;3.60;1.70;;;17.30;99.90;;;;;;4994485;28;20026;-73
2021/08/08 08:16:05;;;;;;;5.82;1.45;;;17.50;99.90;;;;;;4994217;28;20109;-73
2021/08/08 08:18:31;;;;;;;5.47;1.90;;;17.60;99.90;;;;;;4994514;28;20030;-73
2021/08/08 08:20:58;;;;;;;3.53;1.58;;;17.60;99.90;;;;;;4994332;28;20454;-73
2021/08/08 08:23:23;;;;;;;3.88;1.65;;;17.70;99.90;;;;;;4994349;28;20493;-73
2021/08/08 08:25:49;;;;;;;4.88;2.10;;;17.70;99.90;;;;;;4994113;28;20050;-73
2021/08/08 08:28:14;;;;;;;2.35;1.40;;;17.60;99.90;;;;;;4994285;28;20026;-73
2021/08/08 08:30:40;;;;;;;5.78;1.52;;;18.00;99.90;;;;;;4994182;28;20026;-73
2021/08/08 08:33:06;;;;;;;3.92;1.85;;;17.90;99.90;;;;;;4994280;28;20029;-73
2021/08/08 08:35:32;;;;;;;2.08;1.52;;;17.90;99.90;;;;;;5012730;28;20077;-73
2021/08/08 08:37:58;;;;;;;3.70;1.50;;;18.10;99.90;;;;;;5014739;28;20492;-73
2021/08/08 08:40:23;;;;;;;2.13;1.40;;;18.10;99.90;;;;;;5012289;28;20030;-73
2021/08/08 08:42:51;;;;;;;5.15;1.52;;;17.90;99.90;;;;;;5012229;28;20477;-73
2021/08/08 08:45:17;;;;;;;4.78;1.70;;;17.80;99.90;;;;;;5013832;28;20372;-73
2021/08/08 08:47:45;;;;;;;4.00;1.80;;;17.70;99.90;;;;;;5013456;28;20033;-73
2021/08/08 08:50:12;;;;;;;2.65;1.50;;;17.90;99.90;;;;;;5013554;28;20033;-73
2021/08/08 08:52:38;;;;;;;2.35;1.48;;;17.80;99.90;;;;;;5013449;28;20021;-73
2021/08/08 08:55:04;;;;;;;2.95;1.48;;;17.70;99.90;;;;;;5013181;28;20033;-73
2021/08/08 08:57:31;;;;;;;2.80;1.60;;;18.30;99.90;;;;;;5012888;28;20061;-73
2021/08/08 08:59:58;;;;;;;4.45;1.80;;;18.70;99.90;;;;;;5013017;28;20068;-73
2021/08/08 09:02:23;;;;;;;3.30;1.50;;;18.60;99.90;;;;;;5013084;28;20083;-73
2021/08/08 09:04:49;;;;;;;5.93;1.60;;;18.70;99.90;;;;;;5012955;28;20415;-73
2021/08/08 09:07:15;;;;;;;6.05;1.70;;;18.70;99.90;;;;;;5011942;28;20030;-73
2021/08/08 09:09:40;;;;;;;2.70;1.70;;;18.40;99.90;;;;;;5013084;28;20030;-73
2021/08/08 09:12:07;;;;;;;4.82;1.80;;;18.50;99.90;;;;;;5012640;28;20083;-73
2021/08/08 09:14:33;;;;;;;3.10;1.83;;;18.50;99.90;;;;;;5006614;28;20152;-73
2021/08/08 09:16:59;;;;;;;7.55;1.90;;;18.30;99.90;;;;;;4993301;28;20029;-73
2021/08/08 09:19:28;;;;;;;3.00;1.52;;;18.60;99.90;;;;;;4993363;28;20105;-73
2021/08/08 09:21:54;;;;;;;3.33;1.80;;;18.90;99.90;;;;;;4991955;28;20027;-73
2021/08/08 09:24:28;;;;;;;3.67;1.60;;;18.80;99.90;;;;;;4993030;28;20117;-73
2021/08/08 09:27:00;;;;;;;4.30;2.08;;;18.70;99.90;;;;;;4993119;28;20109;-73
2021/08/08 09:29:26;;;;;;;4.72;1.83;;;19.20;99.90;;;;;;4993409;28;20026;-73
2021/08/08 09:31:52;;;;;;;40.88;38.58;;;19.40;99.90;;;;;;4993037;28;20511;-73
2021/08/08 09:34:29;;;;;;;3.63;1.52;;;19.70;99.90;;;;;;4993080;28;20040;-73
2021/08/08 09:36:57;;;;;;;3.38;1.60;;;20.10;99.90;;;;;;4992964;28;20027;-73
2021/08/08 09:39:34;;;;;;;5.47;1.90;;;19.90;99.90;;;;;;4993058;28;20038;-73
2021/08/08 09:42:10;;;;;;;4.95;1.50;;;19.30;99.90;;;;;;4992864;28;20030;-73
2021/08/08 09:44:36;;;;;;;;;;;19.20;99.90;;;;;;4993119;28;20034;-73
2021/08/08 09:47:02;;;;;;;2.85;1.80;;;19.10;99.90;;;;;;4993361;28;20004;-73
2021/08/08 09:49:27;;;;;;;3.97;1.63;;;19.10;99.90;;;;;;4991494;28;20117;-73
2021/08/08 09:51:54;;;;;;;7.90;1.70;;;18.80;99.90;;;;;;4992720;28;20022;-73
2021/08/08 09:54:20;;;;;;;3.88;1.60;;;18.40;99.90;;;;;;4992664;28;20039;-74
2021/08/08 09:57:01;;;;;;;3.30;1.58;;;18.60;99.90;;;;;;4992742;28;20098;-73
2021/08/08 09:59:27;;;;;;;5.68;5.18;;;18.90;99.90;;;;;;4993031;28;20049;-73
2021/08/08 10:01:53;;;;;;;5.25;3.72;;;19.50;99.90;;;;;;4999836;28;20476;-73
2021/08/08 10:04:18;;;;;;;3.40;1.75;;;20.20;99.90;;;;;;5011830;28;20104;-73
2021/08/08 10:06:45;;;;;;;4.70;1.50;;;20.30;99.90;;;;;;5012118;28;20037;-73
2021/08/08 10:09:11;;;;;;;3.67;1.85;;;20.50;99.90;;;;;;5011831;28;20022;-73
2021/08/08 10:11:37;;;;;;;2.90;1.60;;;20.30;99.90;;;;;;5010304;28;20026;-73
2021/08/08 10:14:04;;;;;;;4.03;1.42;;;19.90;99.90;;;;;;5009797;28;20495;-73
2021/08/08 10:16:31;;;;;;;4.50;1.75;;;20.30;99.90;;;;;;4992753;28;20073;-73
2021/08/08 10:19:01;;;;;;;5.40;1.75;;;20.40;99.90;;;;;;4992442;28;20030;-73
2021/08/08 10:21:29;;;;;;;2.97;1.48;;;20.20;99.90;;;;;;4992529;28;20031;-73
2021/08/08 10:24:00;;;;;;;2.70;1.67;;;20.50;99.90;;;;;;4990964;28;20764;-73
2021/08/08 10:26:26;;;;;;;4.18;1.55;;;20.00;99.90;;;;;;4992097;28;20528;-73
2021/08/08 10:28:53;;;;;;;3.30;1.30;;;20.20;99.90;;;;;;4992332;28;20101;-73
2021/08/08 10:31:22;;;;;;;3.72;1.50;;;20.00;99.90;;;;;;4992106;28;20088;-73
2021/08/08 10:33:50;;;;;;;6.57;1.60;;;20.10;99.90;;;;;;4992457;28;20030;-73
2021/08/08 10:36:34;;;;;;;3.20;1.40;;;20.20;99.90;;;;;;4992120;28;20046;-73
2021/08/08 10:39:14;;;;;;;2.78;1.40;;;20.30;99.90;;;;;;4992321;28;20030;-73
2021/08/08 10:41:42;;;;;;;3.88;1.40;;;20.70;99.90;;;;;;4992020;28;20157;-73
2021/08/08 10:44:09;;;;;;;4.63;1.50;;;20.70;99.90;;;;;;4990743;28;20026;-73
2021/08/08 10:46:46;;;;;;;2.67;1.40;;;20.80;99.90;;;;;;4991892;28;20497;-73
2021/08/08 10:49:11;;;;;;;3.33;1.48;;;20.80;99.90;;;;;;4992136;28;20496;-73
2021/08/08 10:51:37;;;;;;;3.70;1.50;;;20.90;99.90;;;;;;4992043;28;20061;-73
2021/08/08 10:54:09;;;;;;;3.83;1.50;;;21.20;99.90;;;;;;4991998;28;20511;-73
2021/08/08 10:56:46;;;;;;;4.60;1.55;;;21.10;99.90;;;;;;4991950;28;20037;-73
2021/08/08 10:59:23;;;;;;;3.28;1.30;;;21.20;99.90;;;;;;4992063;28;20022;-73
2021/08/08 11:02:09;;;;;;;4.72;1.30;;;21.40;99.90;;;;;;4990797;28;20109;-73
2021/08/08 11:04:35;;;;;;;2.65;1.50;;;21.20;99.90;;;;;;4991545;28;20113;-73
2021/08/08 11:07:03;;;;;;;3.60;1.80;;;21.30;99.90;;;;;;4992023;28;20080;-73
2021/08/08 11:09:36;;;;;;;3.70;1.35;;;21.10;99.90;;;;;;4992000;28;20492;-74
2021/08/08 11:12:02;;;;;;;4.25;1.30;;;21.10;99.90;;;;;;4990901;28;20030;-73
2021/08/08 11:14:28;;;;;;;2.92;1.30;;;21.30;99.90;;;;;;4991537;28;20019;-73
2021/08/08 11:17:05;;;;;;;3.72;1.58;;;21.30;99.90;;;;;;4992427;28;20041;-74
2021/08/08 11:19:42;;;;;;;2.50;1.48;;;21.20;99.90;;;;;;4992007;28;20046;-73
2021/08/08 11:22:14;;;;;;;3.55;1.70;;;21.00;99.90;;;;;;4992634;28;20042;-73
2021/08/08 11:24:42;;;;;;;2.47;1.40;;;21.20;99.90;;;;;;4994043;28;20023;-73
2021/08/08 11:27:08;;;;;;;2.97;1.50;;;21.10;99.90;;;;;;4994141;28;20057;-73
2021/08/08 11:29:34;;;;;;;3.40;1.10;;;21.20;99.90;;;;;;4995307;28;20030;-73
2021/08/08 11:32:02;;;;;;;3.28;1.45;;;21.10;99.90;;;;;;4994660;28;20621;-73
2021/08/08 11:34:28;;;;;;;2.28;1.38;;;21.10;99.90;;;;;;4994857;28;20033;-73
2021/08/08 11:36:57;;;;;;;3.45;1.30;;;21.10;99.90;;;;;;4993995;28;20030;-73
2021/08/08 11:39:33;;;;;;;4.63;1.40;;;21.00;99.90;;;;;;4995247;28;20118;-73
2021/08/08 11:42:06;;;;;;;4.25;1.67;;;21.10;99.90;;;;;;4994981;28;20473;-73
2021/08/08 11:44:42;;;;;;;4.72;1.55;;;21.00;99.90;;;;;;4994839;28;20034;-73
2021/08/08 11:47:09;;;;;;;3.05;1.52;;;21.30;99.90;;;;;;4995223;28;20033;-73
2021/08/08 11:49:46;;;;;;;3.00;1.35;;;21.40;99.90;;;;;;4994915;28;20026;-73
2021/08/08 11:52:15;;;;;;;4.38;1.55;;;21.60;99.90;;;;;;4995008;28;20080;-73
2021/08/08 11:54:41;;;;;;;2.78;1.38;;;21.60;99.90;;;;;;4993265;28;20483;-73
2021/08/08 11:57:07;;;;;;;2.95;1.58;;;21.30;99.90;;;;;;4995023;28;20153;-73
2021/08/08 11:59:34;;;;;;;3.70;1.50;;;21.50;99.90;;;;;;4994820;28;20030;-73
2021/08/08 12:02:04;;;;;;;2.10;1.10;;;21.30;99.90;;;;;;4994778;28;20387;-73
2021/08/08 12:04:32;;;;;;;2.88;1.42;;;21.50;99.90;;;;;;4993215;28;20027;-73
2021/08/08 12:06:58;;;;;;;5.47;1.50;;;20.90;99.90;;;;;;4994641;28;20022;-73
2021/08/08 12:09:23;;;;;;;2.47;1.52;;;20.60;99.90;;;;;;4994681;28;20037;-73
2021/08/08 12:11:54;;;;;;;3.33;2.00;;;20.20;99.90;;;;;;4994614;28;20027;-73
2021/08/08 12:14:41;;;;;;;4.63;1.80;;;19.90;99.90;;;;;;4993085;28;20030;-73
2021/08/08 12:17:12;;;;;;;9.50;2.25;;;19.70;99.90;;;;;;4994481;28;20089;-73
2021/08/08 12:19:40;;;;;;;4.75;2.15;;;19.10;99.90;;;;;;4994504;28;20030;-73
2021/08/08 12:22:13;;;;;;;4.90;2.42;;;18.60;99.90;;;;;;4994254;28;20034;-73
2021/08/08 12:24:42;;;;;;;6.53;2.30;;;19.20;99.90;;;;;;4994134;28;20030;-73
2021/08/08 12:27:10;;;;;;;7.18;1.90;;;19.70;99.90;;;;;;4994737;28;20108;-73
2021/08/08 12:29:37;;;;;;;5.82;1.90;;;19.70;99.90;;;;;;4994317;28;20026;-73
2021/08/08 12:32:07;;;;;;;3.45;2.10;;;20.30;99.90;;;;;;4993846;28;20026;-73
2021/08/08 12:34:33;;;;;;;3.75;1.88;;;20.70;99.90;;;;;;4993315;28;20037;-73
2021/08/08 12:37:08;;;;;;;3.90;1.90;;;21.10;99.90;;;;;;4992847;28;20034;-73
2021/08/08 12:39:38;;;;;;;4.82;2.22;;;21.40;99.90;;;;;;4994473;28;20079;-74
2021/08/08 12:42:15;;;;;;;4.43;2.00;;;20.70;99.90;;;;;;4993982;28;20049;-73
2021/08/08 12:44:40;;;;;;;4.10;2.13;;;21.10;99.90;;;;;;4993646;28;20385;-73